Flight Track Log - Related Links

Times and Time Zones

All times are in EDT time to prevent confusion due to time zone crossing. See the FLG4099 flight status page for this flight to view local times or setup timezone preferences in your user account.


Time Position Orientation Groundspeed Altitude Reporting Facility
EDT Latitude Longitude Course Direction KTS MPH feet Rate Location/Type
Thu 06:15:51 AM 44.3981 -73.2333 256° West 230 265 5,800  Level Boston Center
Thu 06:16:00 AM 44.3974 -73.5566 253° West  Level FlightAware Approximate
Thu 06:16:51 AM 44.3808 -73.3319 256° West 251 289 8,500  Level Boston Center
Thu 06:17:00 AM 44.3687 -73.6904 253° West  Level FlightAware Approximate
Thu 06:17:51 AM 44.3653 -73.4361 258° West 273 314 10,800  Level Boston Center
Thu 06:18:00 AM 44.3486 -73.8270 259° West  Level FlightAware Approximate
Thu 06:18:51 AM 44.3475 -73.5664 259° West 306 352 12,700  Level Boston Center
Thu 06:19:00 AM 44.3278 -73.9634 256° West  Level FlightAware Approximate
Thu 06:19:51 AM 44.3275 -73.6939 258° West 336 387 13,700  Level Boston Center
Thu 06:20:00 AM 44.3030 -74.0985 256° West  Level FlightAware Approximate
Thu 06:20:51 AM 44.3050 -73.8356 258° West 359 413 14,800  Level Boston Center
Thu 06:21:00 AM 44.2780 -74.2334 256° West  Level FlightAware Approximate
Thu 06:21:51 AM 44.2844 -73.9800 259° West 370 426 16,400  Level Boston Center
Thu 06:22:51 AM 44.2681 -74.0983 259° West 382 440 17,300 950 Climbing Boston Center
Thu 06:23:51 AM 44.2447 -74.2600 259° West 390 449 18,300 1,000 Climbing Boston Center
Thu 06:24:51 AM 44.2381 -74.4222 267° West 410 472 19,300 1,000 Climbing Boston Center
Thu 06:25:51 AM 44.2289 -74.5842 266° West 417 480 20,300 1,000 Climbing Boston Center
Thu 06:26:51 AM 44.2194 -74.7489 265° West 428 493 21,300 1,000 Climbing Boston Center
Thu 06:27:51 AM 44.2078 -74.9136 264° West 428 493 22,300 1,000 Climbing Boston Center
Thu 06:28:51 AM 44.2000 -75.0756 266° West 428 493 23,300 1,000 Climbing Boston Center
Thu 06:29:51 AM 44.1900 -75.2342 265° West 423 487 24,300 1,100 Climbing Boston Center
Thu 06:30:51 AM 44.1789 -75.4192 265° West 430 495 25,500 1,100 Climbing Boston Center
Thu 06:31:51 AM 44.1686 -75.5778 265° West 430 495 26,500 1,000 Climbing Boston Center
Thu 06:32:51 AM 44.1578 -75.7392 265° West 425 489 27,500 800 Climbing Boston Center
Thu 06:33:51 AM 44.1467 -75.9008 265° West 425 489 28,100 600 Climbing Boston Center
Thu 06:34:51 AM 44.1333 -76.0650 264° West 425 489 28,700 600 Climbing Boston Center
Thu 06:35:51 AM 44.1217 -76.2319 264° West 425 489 29,300 600 Climbing Boston Center
Thu 06:36:51 AM 44.1100 -76.3961 264° West 425 489 29,900 350 Climbing Boston Center
Thu 06:37:51 AM 44.0978 -76.5661 264° West 430 495 30,000 66 Climbing Boston Center
Thu 06:38:22 AM 44.0667 -76.6333 237° Southwest 440 506 30,000  Level Toronto Center
Thu 06:39:22 AM 44.0667 -76.8000 270° West 450 518 30,000  Level Toronto Center
Thu 06:40:22 AM 44.0500 -76.9833 263° West 460 529 30,000  Level Toronto Center
Thu 06:41:22 AM 44.0333 -77.1500 262° West 460 529 30,000  Level Toronto Center
Thu 06:42:22 AM 44.0167 -77.3333 263° West 460 529 30,000  Level Toronto Center
Thu 06:43:22 AM 44.0167 -77.5000 270° West 460 529 30,000  Level Toronto Center
Thu 06:44:22 AM 43.9833 -77.6833 256° West 470 541 30,000  Level Toronto Center
Thu 06:45:22 AM 43.9667 -77.8667 263° West 470 541 30,000  Level Toronto Center
Thu 06:46:22 AM 43.9500 -78.0333 262° West 470 541 30,000  Level Toronto Center
Thu 06:47:22 AM 43.9333 -78.2500 264° West 470 541 30,000  Level Toronto Center
Thu 06:48:22 AM 43.9167 -78.4000 261° West 470 541 30,000  Level Toronto Center
Thu 06:49:22 AM 43.9167 -78.5833 270° West 470 541 30,000  Level Toronto Center
Thu 06:50:22 AM 43.9000 -78.7833 263° West 470 541 30,000  Level Toronto Center
Thu 06:51:22 AM 43.8667 -78.9667 256° West 470 541 30,000  Level Toronto Center
Thu 06:52:22 AM 43.8000 -79.1000 235° Southwest 470 541 30,000  Level Toronto Center
Thu 06:53:22 AM 43.7167 -79.2333 229° Southwest 480 552 30,000  Level Toronto Center
Thu 06:54:22 AM 43.6167 -79.3833 227° Southwest 480 552 30,000  Level Toronto Center
Thu 06:55:22 AM 43.5333 -79.5167 229° Southwest 480 552 30,000  Level Toronto Center
Thu 06:56:22 AM 43.4667 -79.6500 235° Southwest 470 541 30,000  Level Toronto Center
Thu 06:57:22 AM 43.3667 -79.8000 228° Southwest 470 541 30,000  Level Toronto Center
Thu 06:58:22 AM 43.2833 -79.9333 229° Southwest 470 541 30,000 -400 Level Toronto Center
Thu 06:59:22 AM 43.2000 -80.0667 229° Southwest 470 541 29,200 -1,000 Descending Toronto Center
Thu 07:00:22 AM 43.1167 -80.2000 229° Southwest 470 541 28,000 -1,250 Descending Toronto Center
Thu 07:01:22 AM 43.0333 -80.3333 229° Southwest 470 541 26,700 -1,400 Descending Toronto Center
Thu 07:02:22 AM 42.9500 -80.4833 233° Southwest 460 529 25,200 -1,450 Descending Toronto Center
Thu 07:03:22 AM 42.8667 -80.5833 221° Southwest 450 518 23,800 -1,286 Descending Toronto Center
Thu 07:03:46 AM 42.8561 -80.6539 258° West 454 522 23,400 -571 Descending Cleveland Center
Thu 07:04:46 AM 42.7853 -80.7642 229° Southwest 418 481 23,000 -200 Descending Cleveland Center
Thu 07:05:46 AM 42.7161 -80.8800 231° Southwest 404 465 23,000  Level Cleveland Center
Thu 07:06:46 AM 42.6511 -80.9981 233° Southwest 394 453 23,000  Level Cleveland Center
Thu 07:07:46 AM 42.5550 -81.0933 216° Southwest 394 453 23,000  Level Cleveland Center
Thu 07:08:46 AM 42.5064 -81.2225 243° Southwest 384 442 23,000 -700 Level Cleveland Center
Thu 07:09:46 AM 42.5200 -81.3606 278° West 366 421 21,600 -1,000 Descending Cleveland Center
Thu 07:10:46 AM 42.5294 -81.5044 275° West 371 427 21,000 -300 Descending Cleveland Center
Thu 07:11:46 AM 42.5367 -81.6456 274° West 376 433 21,000 -450 Level Cleveland Center
Thu 07:12:46 AM 42.5456 -81.7808 275° West 371 427 20,100 -1,250 Descending Cleveland Center
Thu 07:13:46 AM 42.5547 -81.9164 275° West 366 421 18,500 -1,550 Descending Cleveland Center
Thu 07:14:46 AM 42.5592 -82.0544 273° West 366 421 17,000 -1,450 Descending Cleveland Center
Thu 07:15:46 AM 42.5514 -82.1783 265° West 347 399 15,600 -1,446 Descending Cleveland Center
Thu 07:16:09 AM 42.5483 -82.2292 265° West 345 397 15,000 -1,500 Descending Cleveland Center
Thu 07:16:46 AM 42.5369 -82.3078 259° West 347 399 14,100 -1,377 Descending Cleveland Center
Thu 07:17:10 AM 42.5319 -82.3583 262° West 337 388 13,600 -1,400 Descending Cleveland Center
Thu 07:17:46 AM 42.5203 -82.4339 258° West 340 391 12,700 -1,273 Descending Cleveland Center
Thu 07:18:16 AM 42.5153 -82.4931 263° West 312 359 12,200 -800 Descending Cleveland Center
Thu 07:18:46 AM 42.5061 -82.5433 256° West 332 382 11,900 -787 Descending Cleveland Center
Thu 07:19:17 AM 42.4883 -82.5964 246° West 297 342 11,400 -1,000 Descending Cleveland Center
Thu 07:19:46 AM 42.4753 -82.6325 244° Southwest 297 342 10,900 -1,475 Descending Cleveland Center
Thu 07:20:18 AM 42.4553 -82.6939 246° West 285 328 9,900 -1,600 Descending Cleveland Center
Thu 07:20:46 AM 42.4403 -82.7300 241° Southwest 286 329 9,300 -1,279 Descending Cleveland Center
Thu 07:21:19 AM 42.4222 -82.7969 250° West 282 325 8,600 -1,300 Descending Cleveland Center
Thu 07:21:46 AM 42.4072 -82.8217 231° Southwest 281 323 8,000 -1,574 Descending Cleveland Center
Thu 07:22:20 AM 42.3892 -82.8911 251° West 274 315 7,000 -1,100 Descending Cleveland Center
Thu 07:22:46 AM 42.3864 -82.9192 262° West 275 316 6,900  Descending Cleveland Center
Thu 07:23:15 AM 42.3894 -82.9728 274° West 225 259 7,000  Climbing Cleveland Center
Thu 07:23:46 AM 42.3994 -82.9956 301° West 224 258 6,900 -98 Descending Cleveland Center
Thu 07:24:16 AM 42.4194 -83.0331 306° West 192 221 6,900 -700 Level Cleveland Center
Thu 07:24:46 AM 42.4147 -83.0608 257° West 194 223 6,200 -1,701 Descending Cleveland Center
Thu 07:25:23 AM 42.4050 -83.1225 258° West 200 230 5,000 -1,200 Descending Cleveland Center
Thu 07:25:46 AM 42.4006 -83.1392 250° West 194 223 5,000 -295 Level Cleveland Center
Thu 07:26:24 AM 42.3767 -83.1831 234° Southwest 200 230 4,700 -970 Descending Cleveland Center
Thu 07:27:25 AM 42.3439 -83.2408 233° Southwest 187 215 3,400 -1,279 Descending Cleveland Center

Login

Don't have an account? Register now (free) for customized features, flight alerts, and more!